Latest Weather Observations for Butlers Gorge

IDT60801

Issued at 2:02 pm EDT Tuesday 28 February 2017 (issued every 30 minutes, with the page automatically refreshed every 10 minutes)

About weather observations | Map of weather stations | Latest weather observations for TAS | Other Formats
Station Details ID: 096003 Name: BUTLERS GORGE Lat: -42.28 Lon: 146.28 Height: 667.0 m
Data from the previous 72 hours. | See also: Recent months at Butlers Gorge
Date/Time
EDT
Temp
°C
App
Temp
°C
Dew
Point
°C
Rel
Hum
%
Delta-T
°C
Wind Press
QNH
hPa
Press
MSL
hPa
Rain since
9am
mm
Dir  Spd
km/h
Gust
km/h
Spd
kts
Gust
kts
28/02:00pm 25.4 21.9 3.4 24 11.2 W 11 19 6 10 - - 0.0
28/01:30pm 24.2 20.5 2.4 24 10.8 NW 11 17 6 9 - - 0.0
28/01:00pm 23.8 20.9 4.7 29 9.8 NNW 9 19 5 10 - - 0.0
28/12:30pm 22.7 20.6 6.0 34 8.7 WSW 6 11 3 6 - - 0.0
28/12:00pm 21.6 19.6 7.1 39 7.7 W 7 11 4 6 - - 0.0
28/11:30am 20.8 18.9 7.4 42 7.1 W 7 11 4 6 - - 0.0
28/11:00am 19.3 17.5 8.0 48 6.0 W 7 15 4 8 - - 0.0
28/10:30am 17.4 14.9 8.0 54 4.9 WSW 11 13 6 7 - - 0.0
28/10:00am 15.8 13.5 7.6 58 4.2 WSW 9 13 5 7 - - 0.0
28/09:30am 14.9 12.8 8.4 65 3.4 WSW 9 13 5 7 - - 0.0
28/09:00am 11.3 11.2 9.4 88 1.0 CALM 0 0 0 0 - - 0.0
28/08:30am 8.6 8.1 7.8 95 0.4 CALM 0 0 0 0 - - 0.0
28/08:00am 4.0 2.6 3.3 95 0.3 CALM 0 0 0 0 - - 0.0
28/07:30am 2.1 0.3 1.4 95 0.3 CALM 0 0 0 0 - - 0.0
28/07:00am 1.5 -0.4 0.6 94 0.3 CALM 0 0 0 0 - - 0.0
28/06:30am 2.4 0.6 1.5 94 0.4 CALM 0 0 0 0 - - 0.0
28/06:00am 2.0 0.2 1.1 94 0.4 CALM 0 0 0 0 - - 0.0
28/05:30am 3.3 1.7 2.4 94 0.4 CALM 0 0 0 0 - - 0.0
28/05:00am 3.5 1.9 2.6 94 0.4 CALM 0 0 0 0 - - 0.0
28/04:30am 4.3 2.9 3.3 93 0.4 CALM 0 0 0 0 - - 0.0
28/04:00am 4.5 3.1 3.3 92 0.5 CALM 0 0 0 0 - - 0.0
28/03:30am 5.8 3.5 4.6 92 0.5 WSW 6 9 3 5 - - 0.0
28/03:00am 6.9 4.6 5.7 92 0.6 WSW 7 7 4 4 - - 0.0
28/02:30am 7.3 5.2 5.9 91 0.7 SW 6 7 3 4 - - 0.0
28/02:00am 7.9 5.9 6.4 90 0.7 WSW 6 7 3 4 - - 0.0
28/01:30am 8.7 6.7 7.0 89 0.8 WSW 7 9 4 5 - - 0.0
28/01:00am 8.7 6.8 6.7 87 1.0 SW 6 9 3 5 - - 0.0
28/12:30am 10.5 8.7 7.9 84 1.3 WSW 7 9 4 5 - - 0.0
28/12:00am 11.4 9.8 8.6 83 1.4 WSW 7 15 4 8 - - 0.0
 
Date/Time
EDT
Temp
°C
App
Temp
°C
Dew
Point
°C
Rel
Hum
%
Delta-T
°C
Wind Press
QNH
hPa
Press
MSL
hPa
Rain since
9am
mm
Dir  Spd
km/h
Gust
km/h
Spd
kts
Gust
kts
27/11:30pm 10.8 9.0 8.0 83 1.4 SW 7 9 4 5 - - 0.0
27/11:00pm 11.2 9.0 7.9 80 1.7 SW 9 13 5 7 - - 0.0
27/10:30pm 11.8 9.6 7.9 77 2.0 WSW 9 15 5 8 - - 0.0
27/10:00pm 12.8 10.7 8.3 74 2.3 WSW 9 13 5 7 - - 0.0
27/09:30pm 13.6 12.0 8.9 73 2.5 WSW 7 11 4 6 - - 0.0
27/09:00pm 14.5 12.5 8.7 68 3.0 WSW 9 11 5 6 - - 0.0
27/08:30pm 14.5 12.8 8.5 67 3.1 SW 7 9 4 5 - - 0.0
27/08:00pm 16.8 14.9 9.0 60 4.2 WSW 9 15 5 8 - - 0.0
27/07:30pm 18.9 17.4 8.3 50 5.7 W 6 11 3 6 - - 0.0
27/07:00pm 20.5 18.7 7.8 44 6.8 NW 7 13 4 7 - - 0.0
27/06:30pm 21.8 19.3 6.5 37 8.0 NW 9 15 5 8 - - 0.0
27/06:00pm 22.4 19.4 6.2 35 8.5 NNW 11 17 6 9 - - 0.0
27/05:30pm 22.9 20.3 6.2 34 8.8 WNW 9 17 5 9 - - 0.0
27/05:00pm 23.8 21.4 7.0 34 9.0 NW 9 17 5 9 - - 0.0
27/04:30pm 23.8 21.1 5.7 31 9.5 NW 9 17 5 9 - - 0.0
27/04:00pm 24.0 20.8 4.9 29 9.9 NNW 11 19 6 10 - - 0.0
27/03:30pm 23.8 20.4 6.1 32 9.3 W 13 19 7 10 - - 0.0
27/03:00pm 24.0 20.4 2.8 25 10.6 NW 11 20 6 11 - - 0.0
27/02:30pm 22.9 19.1 3.9 29 9.6 WNW 13 20 7 11 - - 0.0
27/02:00pm 22.5 18.8 2.6 27 9.8 NW 11 15 6 8 - - 0.0
27/01:30pm 22.1 18.2 1.2 25 10.0 WNW 11 15 6 8 - - 0.0
27/01:00pm 21.8 19.1 3.5 30 9.1 WSW 7 9 4 5 - - 0.0
27/12:30pm 21.6 18.7 2.8 29 9.2 SSW 7 13 4 7 - - 0.0
27/12:00pm 20.6 18.2 4.2 34 8.2 SSW 6 11 3 6 - - 0.0
27/11:30am 19.7 17.8 3.0 33 8.1 SW 2 7 1 4 - - 0.0
27/11:00am 17.9 15.6 3.0 37 7.1 SE 4 7 2 4 - - 0.0
27/10:30am 15.9 14.0 2.7 41 6.2 SSW 2 7 1 4 - - 0.0
27/10:00am 14.0 11.9 5.9 58 4.0 ESE 6 7 3 4 - - 0.0
27/09:30am 10.9 9.1 7.2 78 1.8 ESE 6 7 3 4 - - 0.0
27/09:00am 8.7 8.2 7.8 94 0.4 CALM 0 6 0 3 - - 0.0
27/08:30am 6.4 5.4 5.8 96 0.3 CALM 0 0 0 0 - - 0.0
27/08:00am 4.2 2.8 3.6 96 0.3 CALM 0 0 0 0 - - 0.0
27/07:30am 2.4 0.7 1.7 95 0.3 CALM 0 0 0 0 - - 0.0
27/07:00am 2.2 0.4 1.5 95 0.3 CALM 0 0 0 0 - - 0.0
27/06:30am 2.7 1.0 2.0 95 0.3 CALM 0 0 0 0 - - 0.0
27/06:00am 3.1 1.5 2.4 95 0.3 CALM 0 0 0 0 - - 0.0
27/05:30am 3.2 1.6 2.5 95 0.3 CALM 0 0 0 0 - - 0.0
27/05:00am 3.2 1.6 2.5 95 0.3 CALM 0 0 0 0 - - 0.0
27/04:30am 3.3 1.7 2.6 95 0.3 CALM 0 0 0 0 - - 0.0
27/04:00am 3.6 2.1 2.9 95 0.3 CALM 0 0 0 0 - - 0.0
27/03:30am 4.3 2.9 3.6 95 0.3 CALM 0 0 0 0 - - 0.0
27/03:00am 4.3 2.9 3.4 94 0.4 CALM 0 0 0 0 - - 0.0
27/02:30am 4.9 3.6 4.0 94 0.4 CALM 0 0 0 0 - - 0.0
27/02:00am 5.7 4.5 4.8 94 0.4 CALM 0 0 0 0 - - 0.0
27/01:30am 6.0 4.9 5.1 94 0.4 CALM 0 0 0 0 - - 0.0
27/01:00am 6.3 5.2 5.3 93 0.5 CALM 0 0 0 0 - - 0.0
27/12:30am 7.0 6.0 5.8 92 0.6 CALM 0 0 0 0 - - 0.0
27/12:00am 7.2 6.3 6.0 92 0.6 CALM 0 0 0 0 - - 0.0
 
Date/Time
EDT
Temp
°C
App
Temp
°C
Dew
Point
°C
Rel
Hum
%
Delta-T
°C
Wind Press
QNH
hPa
Press
MSL
hPa
Rain since
9am
mm
Dir  Spd
km/h
Gust
km/h
Spd
kts
Gust
kts
26/11:30pm 8.0 7.2 6.6 91 0.7 CALM 0 0 0 0 - - 0.0
26/11:00pm 8.9 8.3 7.4 90 0.7 CALM 0 0 0 0 - - 0.0
26/10:30pm 9.7 8.9 8.0 89 0.9 SW 2 6 1 3 - - 0.0
26/10:00pm 10.5 10.1 8.3 86 1.1 CALM 0 0 0 0 - - 0.0
26/09:30pm 11.3 10.9 8.2 81 1.6 CALM 0 0 0 0 - - 0.0
26/09:00pm 13.1 12.9 9.0 76 2.1 CALM 0 0 0 0 - - 0.0
26/08:30pm 15.2 13.8 8.9 66 3.3 S 6 9 3 5 - - 0.0
26/08:00pm 16.1 14.7 8.8 62 3.9 WNW 6 9 3 5 - - 0.0
26/07:30pm 17.1 15.1 8.8 58 4.4 SW 9 19 5 10 - - 0.0
26/07:00pm 18.2 16.2 8.5 53 5.2 SSW 9 17 5 9 - - 0.0
26/06:30pm 19.9 18.0 8.9 49 6.0 SSW 9 15 5 8 - - 0.0
26/06:00pm 20.3 18.5 8.0 45 6.6 S 7 13 4 7 - - 0.0
26/05:30pm 20.4 18.8 8.1 45 6.6 SW 6 9 3 5 - - 0.0
26/05:00pm 21.2 18.7 4.7 34 8.4 NW 7 13 4 7 - - 0.0
26/04:30pm 21.2 18.9 5.6 36 8.0 WNW 7 9 4 5 - - 0.0
26/04:00pm 20.7 18.3 5.1 36 7.9 NW 7 15 4 8 - - 0.0
26/03:30pm 20.8 18.5 4.8 35 8.1 SW 6 13 3 7 - - 0.0
26/03:00pm 20.3 17.8 4.8 36 7.8 W 7 13 4 7 - - 0.0
26/02:30pm 19.8 16.9 4.7 37 7.6 WNW 9 15 5 8 - - 0.0
26/02:00pm 19.6 16.7 4.9 38 7.4 NNW 9 15 5 8 - - 0.0
26/01:30pm 19.0 16.0 6.2 43 6.6 WNW 11 17 6 9 - - 0.0
26/01:00pm 17.9 14.9 4.1 40 6.7 W 9 15 5 8 - - 0.0
26/12:30pm 17.1 15.1 7.2 52 5.1 WSW 7 13 4 7 - - 0.0
26/12:00pm 16.5 14.7 8.0 57 4.4 NW 7 13 4 7 - - 0.0
26/11:30am 15.5 13.3 7.8 60 4.0 NNW 9 15 5 8 - - 0.0
26/11:00am 14.8 13.0 7.8 63 3.6 WNW 7 13 4 7 - - 0.0
26/10:30am 13.8 11.4 6.9 63 3.5 NNW 9 15 5 8 - - 0.0
26/10:00am 13.4 11.1 7.6 68 3.0 WNW 9 15 5 8 - - 0.0
26/09:30am 12.5 10.8 8.2 75 2.2 WNW 7 13 4 7 - - 0.0
26/09:00am 9.8 9.2 7.6 86 1.1 CALM 0 0 0 0 - - 0.0
26/08:30am 7.0 6.1 6.1 94 0.4 CALM 0 0 0 0 - - 0.0
26/08:00am 4.5 3.1 3.8 95 0.3 CALM 0 0 0 0 - - 0.0
26/07:30am 2.4 0.7 1.7 95 0.3 CALM 0 0 0 0 - - 0.0
26/07:00am 1.9 0.1 1.2 95 0.3 CALM 0 0 0 0 - - 0.0
26/06:30am 1.4 -0.5 0.7 95 0.3 CALM 0 0 0 0 - - 0.0
26/06:00am 0.9 -1.1 0.0 94 0.3 CALM 0 0 0 0 - - 0.0
26/05:30am 0.9 -1.1 0.0 94 0.3 CALM 0 0 0 0 - - 0.0
26/05:00am 1.3 -0.6 0.4 94 0.3 CALM 0 0 0 0 - - 0.0
26/04:30am 2.0 -0.6 1.1 94 0.4 WSW 4 7 2 4 - - 0.0
26/04:00am 1.5 -0.4 0.6 94 0.3 CALM 0 0 0 0 - - 0.0
26/03:30am 2.2 0.4 1.3 94 0.4 CALM 0 6 0 3 - - 0.0
26/03:00am 2.4 0.6 1.5 94 0.4 CALM 0 0 0 0 - - 0.0
26/02:30am 2.9 1.2 2.0 94 0.4 CALM 0 0 0 0 - - 0.0
26/02:00am 2.6 0.9 1.6 93 0.4 CALM 0 0 0 0 - - 0.0
26/01:30am 3.7 2.1 2.7 93 0.4 CALM 0 0 0 0 - - 0.0
26/01:00am 3.9 2.3 2.7 92 0.5 CALM 0 0 0 0 - - 0.0
26/12:30am 4.4 2.9 3.1 91 0.6 CALM 0 0 0 0 - - 0.0
26/12:00am 5.2 3.8 3.7 90 0.7 CALM 0 0 0 0 - - 0.0
 
Date/Time
EDT
Temp
°C
App
Temp
°C
Dew
Point
°C
Rel
Hum
%
Delta-T
°C
Wind Press
QNH
hPa
Press
MSL
hPa
Rain since
9am
mm
Dir  Spd
km/h
Gust
km/h
Spd
kts
Gust
kts
25/11:30pm 5.7 4.4 3.9 88 0.8 CALM 0 0 0 0 - - 0.0
25/11:00pm 6.4 4.7 4.2 86 1.0 NNE 2 6 1 3 - - 0.0
25/10:30pm 7.2 6.0 4.5 83 1.2 CALM 0 7 0 4 - - 0.0
25/10:00pm 7.1 5.9 4.4 83 1.2 CALM 0 0 0 0 - - 0.0
25/09:30pm 7.0 5.7 4.1 82 1.3 CALM 0 0 0 0 - - 0.0
25/09:00pm 8.4 6.5 5.0 79 1.6 WSW 4 7 2 4 - - 0.0
25/08:30pm 9.1 7.0 4.1 71 2.3 WSW 4 7 2 4 - - 0.0
25/08:00pm 10.5 8.1 4.4 66 2.8 SW 6 9 3 5 - - 0.0
25/07:30pm 12.8 10.3 3.7 54 4.2 WSW 6 11 3 6 - - 0.0
25/07:00pm 14.4 11.2 3.2 47 5.2 WSW 9 15 5 8 - - 0.0
25/06:30pm 15.8 12.8 3.9 45 5.7 W 9 15 5 8 - - 0.0
25/06:00pm 16.0 12.8 3.1 42 6.1 WSW 9 15 5 8 - - 0.0
25/05:30pm 15.9 12.4 3.7 44 5.8 W 11 20 6 11 - - 0.0
25/05:00pm 15.9 12.4 3.7 44 5.8 SW 11 22 6 12 - - 0.0
25/04:30pm 15.8 12.0 3.9 45 5.7 SSW 13 22 7 12 - - 0.0
25/04:00pm 15.9 12.2 4.3 46 5.6 SSW 13 22 7 12 - - 0.0
25/03:30pm 16.8 13.5 4.5 44 6.0 SSW 11 19 6 10 - - 0.0
25/03:00pm 16.3 12.7 3.0 41 6.3 W 11 20 6 11 - - 0.0
25/02:30pm 16.1 12.0 2.2 39 6.5 SW 13 20 7 11 - - 0.0

Other Formats:

Comma delimited format used in spreadsheet applications
http://www.bom.gov.au/fwo/IDT60801/IDT60801.94959.axf

JavaScript Object Notation format (JSON) in row-major order
http://www.bom.gov.au/fwo/IDT60801/IDT60801.94959.json